createdAt,value
2022-10-11T00:00:58.239Z,7.10
2022-10-11T00:03:34.846Z,7.10
2022-10-11T00:06:03.941Z,7.10
2022-10-11T00:08:33.104Z,7.14
2022-10-11T00:11:03.421Z,7.16
2022-10-11T00:13:31.786Z,7.16
2022-10-11T00:15:59.705Z,7.18
2022-10-11T00:18:27.573Z,7.24
2022-10-11T00:21:10.787Z,7.29
2022-10-11T00:23:39.054Z,7.32
2022-10-11T00:26:09.324Z,7.38
2022-10-11T00:28:38.068Z,7.46
2022-10-11T00:31:11.138Z,7.51
2022-10-11T00:33:39.740Z,7.56
2022-10-11T00:36:09.254Z,7.59
2022-10-11T00:38:37.578Z,7.61
2022-10-11T00:41:05.626Z,7.65
2022-10-11T00:43:34.177Z,7.69
2022-10-11T00:46:06.847Z,7.74
2022-10-11T00:48:45.897Z,7.78
2022-10-11T00:51:21.330Z,7.87
2022-10-11T00:53:51.165Z,7.92
2022-10-11T00:56:32.798Z,7.93
2022-10-11T00:59:04.916Z,7.95
2022-10-11T01:01:33.116Z,7.95
2022-10-11T01:04:01.995Z,7.99
2022-10-11T01:06:30.001Z,8.01
2022-10-11T01:08:57.914Z,8.04
2022-10-11T01:11:28.985Z,8.02
2022-10-11T01:14:15.917Z,8.05
2022-10-11T01:16:46.836Z,8.09
2022-10-11T01:19:52.394Z,8.08
2022-10-11T01:22:29.338Z,8.06
2022-10-11T01:25:25.056Z,7.98
2022-10-11T01:27:56.212Z,7.98
2022-10-11T01:30:28.956Z,7.98
2022-10-11T01:33:22.885Z,8.01
2022-10-11T01:36:03.748Z,8.03
2022-10-11T01:38:34.689Z,7.99
2022-10-11T01:41:08.267Z,7.99
2022-10-11T01:43:38.625Z,7.97
2022-10-11T01:46:08.414Z,8.04
2022-10-11T01:49:03.126Z,8.14
2022-10-11T01:51:47.604Z,8.29
2022-10-11T01:54:24.750Z,8.42
2022-10-11T01:57:10.731Z,8.55
2022-10-11T01:59:44.542Z,8.69
2022-10-11T02:02:49.926Z,8.84
2022-10-11T02:05:30.673Z,9.01
2022-10-11T02:08:26.778Z,9.11
2022-10-11T02:11:06.851Z,9.19
2022-10-11T02:13:46.233Z,9.25
2022-10-11T02:16:20.631Z,9.31
2022-10-11T02:18:52.990Z,9.41
2022-10-11T02:21:23.281Z,9.50
2022-10-11T02:24:00.520Z,9.57
2022-10-11T02:26:31.489Z,9.60
2022-10-11T02:29:04.689Z,9.62
2022-10-11T02:31:34.791Z,9.64
2022-10-11T02:34:18.656Z,9.67
2022-10-11T02:37:02.439Z,9.73
2022-10-11T02:39:39.538Z,9.77
2022-10-11T02:42:14.232Z,9.78
2022-10-11T02:44:46.616Z,9.77
2022-10-11T02:47:14.871Z,9.76
2022-10-11T02:49:42.733Z,9.74
2022-10-11T02:52:10.541Z,9.76
2022-10-11T02:54:38.382Z,9.77
2022-10-11T02:57:06.228Z,9.80
2022-10-11T02:59:34.067Z,9.80
2022-10-11T03:02:01.926Z,9.79
2022-10-11T03:04:29.765Z,9.76
2022-10-11T03:06:57.547Z,9.70
2022-10-11T03:09:25.585Z,9.68
2022-10-11T03:11:53.403Z,9.69
2022-10-11T03:14:21.199Z,9.72
2022-10-11T03:16:51.573Z,9.72
2022-10-11T03:19:19.614Z,9.72
2022-10-11T03:21:47.536Z,9.70
2022-10-11T03:24:15.483Z,9.70
2022-10-11T03:26:43.335Z,9.71
2022-10-11T03:29:11.209Z,9.75
2022-10-11T03:31:39.047Z,9.80
2022-10-11T03:34:06.928Z,9.82
2022-10-11T03:36:34.740Z,9.81
2022-10-11T03:39:03.862Z,9.79
2022-10-11T03:41:31.891Z,9.74
2022-10-11T03:43:59.723Z,9.77
2022-10-11T03:46:27.609Z,9.82
2022-10-11T03:48:55.441Z,9.86
2022-10-11T03:51:23.301Z,9.88
2022-10-11T03:53:51.045Z,9.86
2022-10-11T03:56:18.901Z,9.85
2022-10-11T03:58:46.756Z,9.84
2022-10-11T04:01:14.749Z,9.85
2022-10-11T04:03:42.878Z,9.87
2022-10-11T04:06:12.190Z,9.91
2022-10-11T04:08:39.996Z,9.91
2022-10-11T04:11:07.941Z,9.91
2022-10-11T04:13:36.422Z,9.86
2022-10-11T04:16:04.910Z,9.85
2022-10-11T04:18:32.873Z,9.86
2022-10-11T04:21:00.677Z,9.88
2022-10-11T04:23:30.955Z,9.86
2022-10-11T04:25:58.834Z,9.81
2022-10-11T04:28:26.774Z,9.76
2022-10-11T04:30:54.660Z,9.72
2022-10-11T04:33:22.494Z,9.71
2022-10-11T04:35:54.904Z,9.70
2022-10-11T04:38:23.689Z,9.73
2022-10-11T04:40:51.556Z,9.74
2022-10-11T04:43:19.561Z,9.70
2022-10-11T04:45:47.373Z,9.67
2022-10-11T04:48:15.567Z,9.69
2022-10-11T04:50:45.409Z,9.73
2022-10-11T04:53:17.367Z,9.78
2022-10-11T04:55:45.471Z,9.78
2022-10-11T04:58:13.314Z,9.81
2022-10-11T05:00:42.649Z,9.83
2022-10-11T05:03:10.554Z,9.82
2022-10-11T05:05:38.846Z,9.83
2022-10-11T05:08:06.761Z,9.85
2022-10-11T05:10:37.105Z,9.87
2022-10-11T05:13:05.016Z,9.93
2022-10-11T05:15:33.001Z,9.97
2022-10-11T05:18:00.947Z,9.94
2022-10-11T05:20:32.005Z,9.90
2022-10-11T05:23:00.124Z,9.92
2022-10-11T05:25:28.133Z,9.95
2022-10-11T05:27:56.198Z,10.00
2022-10-11T05:30:23.985Z,10.03
2022-10-11T05:32:51.838Z,10.05
2022-10-11T05:35:19.639Z,10.08
2022-10-11T05:37:47.413Z,10.10
2022-10-11T05:40:15.423Z,10.16
2022-10-11T05:42:43.224Z,10.24
2022-10-11T05:45:11.025Z,10.29
2022-10-11T05:47:38.820Z,10.34
2022-10-11T05:50:07.206Z,10.39
2022-10-11T05:52:35.051Z,10.45
2022-10-11T05:55:03.453Z,10.50
2022-10-11T05:57:31.288Z,10.56
2022-10-11T05:59:59.192Z,10.64
2022-10-11T06:02:27.042Z,10.72
2022-10-11T06:04:54.838Z,10.77
2022-10-11T06:07:22.709Z,10.81
2022-10-11T06:09:51.643Z,10.81
2022-10-11T06:12:19.651Z,10.80
2022-10-11T06:14:47.902Z,10.78
2022-10-11T06:17:15.795Z,10.76
2022-10-11T06:19:43.626Z,10.72
2022-10-11T06:22:12.320Z,10.67
2022-10-11T06:24:40.103Z,10.63
2022-10-11T06:27:08.505Z,10.57
2022-10-11T06:29:36.803Z,10.46
2022-10-11T06:32:05.517Z,10.34
2022-10-11T06:34:33.426Z,10.27
2022-10-11T06:37:01.257Z,10.25
2022-10-11T06:39:29.203Z,10.26
2022-10-11T06:41:57.166Z,10.30
2022-10-11T06:44:26.512Z,10.35
2022-10-11T06:46:54.413Z,10.37
2022-10-11T06:49:23.498Z,10.39
2022-10-11T06:51:51.600Z,10.40
2022-10-11T06:54:19.449Z,10.40
2022-10-11T06:57:14.078Z,10.38
2022-10-11T06:59:41.951Z,10.40
2022-10-11T07:02:10.377Z,10.38
2022-10-11T07:04:38.252Z,10.39
2022-10-11T07:07:06.129Z,10.38
2022-10-11T07:09:34.502Z,10.39
2022-10-11T07:12:02.305Z,10.39
2022-10-11T07:14:30.129Z,10.41
2022-10-11T07:16:58.170Z,10.50
2022-10-11T07:19:26.023Z,10.59
2022-10-11T07:21:53.827Z,10.66
2022-10-11T07:24:21.724Z,10.73
2022-10-11T07:26:49.558Z,10.78
2022-10-11T07:29:17.479Z,10.87
2022-10-11T07:31:45.404Z,10.95
2022-10-11T07:34:13.307Z,11.02
2022-10-11T07:36:41.129Z,11.10
2022-10-11T07:39:09.390Z,11.17
2022-10-11T07:41:44.575Z,11.22
2022-10-11T07:44:14.799Z,11.26
2022-10-11T07:46:42.670Z,11.31
2022-10-11T07:49:10.442Z,11.41
2022-10-11T07:51:38.261Z,11.43
2022-10-11T07:54:07.430Z,11.39
2022-10-11T07:56:36.992Z,11.38
2022-10-11T07:59:04.956Z,11.40
2022-10-11T08:01:33.451Z,11.45
2022-10-11T08:04:01.367Z,11.46
2022-10-11T08:06:32.616Z,11.49
2022-10-11T08:09:01.569Z,11.54
2022-10-11T08:11:32.814Z,11.61
2022-10-11T08:14:02.014Z,11.72
2022-10-11T08:16:29.984Z,11.84
2022-10-11T08:18:57.858Z,11.95
2022-10-11T08:21:26.944Z,12.10
2022-10-11T08:23:55.243Z,12.28
2022-10-11T08:26:24.538Z,12.39
2022-10-11T08:28:52.498Z,12.59
2022-10-11T08:31:20.873Z,12.79
2022-10-11T08:33:48.697Z,12.90
2022-10-11T08:36:16.519Z,12.86
2022-10-11T08:38:44.436Z,12.89
2022-10-11T08:41:15.226Z,12.98
2022-10-11T08:43:58.063Z,13.01
2022-10-11T08:46:33.670Z,13.04
2022-10-11T08:49:02.666Z,13.08
2022-10-11T08:51:43.419Z,13.18
2022-10-11T08:54:23.019Z,13.32
2022-10-11T08:56:51.353Z,13.43
2022-10-11T08:59:46.756Z,13.47
2022-10-11T09:02:14.514Z,13.56
2022-10-11T09:04:42.327Z,13.67
2022-10-11T09:07:33.658Z,13.82
2022-10-11T09:10:07.741Z,13.96
2022-10-11T09:12:50.364Z,14.00
2022-10-11T09:15:25.280Z,14.01
2022-10-11T09:18:25.915Z,14.10
2022-10-11T09:20:53.679Z,14.18
2022-10-11T09:23:40.151Z,14.27
2022-10-11T09:26:23.087Z,14.31
2022-10-11T09:29:22.518Z,14.34
2022-10-11T09:31:58.078Z,14.31
2022-10-11T09:34:35.413Z,14.31
2022-10-11T09:37:32.962Z,14.26
2022-10-11T09:40:22.102Z,14.16
2022-10-11T09:42:49.962Z,14.07
2022-10-11T09:45:21.420Z,14.06
2022-10-11T09:47:51.209Z,14.09
2022-10-11T09:50:23.347Z,14.04
2022-10-11T09:52:56.654Z,14.07
2022-10-11T09:55:39.144Z,14.07
2022-10-11T09:58:25.754Z,14.05
2022-10-11T10:01:02.770Z,14.06
2022-10-11T10:03:40.166Z,13.98
2022-10-11T10:06:17.192Z,13.89
2022-10-11T10:08:47.265Z,13.86
2022-10-11T10:11:15.347Z,13.87
2022-10-11T10:13:43.217Z,13.84
2022-10-11T10:16:22.274Z,13.79
2022-10-11T10:19:05.007Z,13.79
2022-10-11T10:21:36.000Z,13.71
2022-10-11T10:24:08.786Z,13.62
2022-10-11T10:26:36.628Z,13.59
2022-10-11T10:29:24.769Z,13.68
2022-10-11T10:35:23.290Z,13.86
2022-10-11T10:38:05.766Z,13.89
2022-10-11T10:40:43.799Z,13.82
2022-10-11T10:43:21.321Z,13.80
2022-10-11T10:46:26.911Z,13.78
2022-10-11T10:49:48.326Z,13.70
2022-10-11T10:52:20.038Z,13.62
2022-10-11T10:54:51.877Z,13.59
2022-10-11T10:57:33.628Z,13.54
2022-10-11T11:00:10.841Z,13.37
2022-10-11T11:02:41.261Z,13.21
2022-10-11T11:05:28.363Z,13.09
2022-10-11T11:08:03.936Z,12.98
2022-10-11T11:11:18.257Z,12.93
2022-10-11T11:13:58.200Z,12.94
2022-10-11T11:16:32.239Z,12.82
2022-10-11T11:19:02.775Z,12.76
2022-10-11T11:21:48.252Z,12.78
2022-10-11T11:25:17.828Z,12.78
2022-10-11T11:28:03.581Z,12.75
2022-10-11T11:30:49.061Z,12.76
2022-10-11T11:33:35.740Z,12.79
2022-10-11T11:36:10.234Z,12.81
2022-10-11T11:38:49.917Z,12.80
2022-10-11T11:41:23.105Z,12.76
2022-10-11T11:43:53.796Z,12.72
2022-10-11T11:46:35.998Z,12.69
2022-10-11T11:49:13.524Z,12.70
2022-10-11T11:51:46.343Z,12.62
2022-10-11T11:54:17.041Z,12.63
2022-10-11T11:57:00.016Z,12.59
2022-10-11T11:59:33.980Z,12.58
2022-10-11T12:02:22.262Z,12.58
2022-10-11T12:04:51.296Z,12.59
2022-10-11T12:07:22.990Z,12.58
2022-10-11T12:10:22.558Z,12.57
2022-10-11T12:13:20.057Z,12.56
2022-10-11T12:16:06.209Z,12.57
2022-10-11T12:18:41.896Z,12.55
2022-10-11T12:21:26.412Z,12.56
2022-10-11T12:23:56.749Z,12.54
2022-10-11T12:30:47.204Z,12.51
2022-10-11T12:33:22.607Z,12.55
2022-10-11T12:35:56.362Z,12.61
2022-10-11T12:38:28.579Z,12.67
2022-10-11T12:41:00.614Z,12.73
2022-10-11T12:43:48.431Z,12.84
2022-10-11T12:46:28.499Z,13.28
2022-10-11T12:49:15.141Z,13.65
2022-10-11T12:51:51.189Z,13.97
2022-10-11T12:54:44.164Z,14.32
2022-10-11T12:57:45.902Z,14.62
2022-10-11T13:00:22.065Z,14.79
2022-10-11T13:02:50.293Z,14.86
2022-10-11T13:05:25.845Z,14.92
2022-10-11T13:07:57.792Z,15.06
2022-10-11T13:10:36.184Z,15.11
2022-10-11T13:13:10.099Z,15.20
2022-10-11T13:15:38.080Z,15.37
2022-10-11T13:18:05.978Z,15.48
2022-10-11T13:20:37.622Z,15.72
2022-10-11T13:23:27.922Z,16.19
2022-10-11T13:25:56.727Z,16.55
2022-10-11T13:28:24.687Z,16.68
2022-10-11T13:30:56.075Z,16.72
2022-10-11T13:33:37.603Z,16.61
2022-10-11T13:36:09.517Z,16.50
2022-10-11T13:38:37.627Z,16.26
2022-10-11T13:41:10.384Z,16.02
2022-10-11T13:43:40.830Z,15.54
2022-10-11T13:46:19.457Z,15.25
2022-10-11T13:49:01.165Z,15.02
2022-10-11T13:51:37.670Z,14.81
2022-10-11T13:54:11.761Z,14.72
2022-10-11T13:56:46.276Z,14.55
2022-10-11T13:59:32.348Z,14.58
2022-10-11T14:02:04.381Z,14.73
2022-10-11T14:04:40.849Z,15.07
2022-10-11T14:07:26.512Z,15.50
2022-10-11T14:09:55.946Z,16.04
2022-10-11T14:12:32.304Z,16.33
2022-10-11T14:15:01.702Z,16.40
2022-10-11T14:17:47.801Z,16.31
2022-10-11T14:20:29.557Z,16.28
2022-10-11T14:23:00.257Z,16.57
2022-10-11T14:25:28.499Z,16.76
2022-10-11T14:27:56.992Z,16.75
2022-10-11T14:30:27.636Z,16.77
2022-10-11T14:33:01.144Z,16.68
2022-10-11T14:35:32.243Z,16.60
2022-10-11T14:38:00.786Z,16.72
2022-10-11T14:40:31.159Z,16.89
2022-10-11T14:42:59.143Z,16.96
2022-10-11T14:45:28.231Z,17.07
2022-10-11T14:47:56.554Z,17.27
2022-10-11T14:50:39.297Z,17.50
2022-10-11T14:53:09.005Z,17.84
2022-10-11T14:55:38.622Z,18.03
2022-10-11T14:58:10.159Z,18.04
2022-10-11T15:00:42.653Z,17.96
2022-10-11T15:03:10.640Z,17.74
2022-10-11T15:05:39.067Z,17.46
2022-10-11T15:08:07.355Z,17.17
2022-10-11T15:10:40.737Z,16.95
2022-10-11T15:13:09.155Z,16.70
2022-10-11T15:15:40.930Z,16.44
2022-10-11T15:18:18.775Z,16.19
2022-10-11T15:20:46.827Z,15.92
2022-10-11T15:23:14.691Z,15.74
2022-10-11T15:25:42.948Z,15.51
2022-10-11T15:28:22.558Z,15.33
2022-10-11T15:30:50.574Z,15.38
2022-10-11T15:33:18.553Z,15.61
2022-10-11T15:35:47.348Z,15.81
2022-10-11T15:38:24.149Z,16.00
2022-10-11T15:40:53.064Z,16.15
2022-10-11T15:43:24.784Z,16.22
2022-10-11T15:45:54.911Z,16.19
2022-10-11T15:48:26.491Z,16.03
2022-10-11T15:50:55.008Z,15.77
2022-10-11T15:53:28.551Z,15.43
2022-10-11T15:56:03.549Z,14.99
2022-10-11T15:58:34.858Z,14.46
2022-10-11T16:01:14.866Z,13.97
2022-10-11T16:03:43.765Z,13.57
2022-10-11T16:06:12.408Z,13.37
2022-10-11T16:08:41.861Z,13.11
2022-10-11T16:11:10.997Z,12.94
2022-10-11T16:13:39.450Z,12.80
2022-10-11T16:16:09.004Z,12.63
2022-10-11T16:18:37.984Z,12.52
2022-10-11T16:21:10.752Z,12.35
2022-10-11T16:23:38.948Z,12.19
2022-10-11T16:26:13.457Z,11.95
2022-10-11T16:28:42.167Z,11.70
2022-10-11T16:31:13.399Z,11.40
2022-10-11T16:33:47.864Z,11.08
2022-10-11T16:36:32.079Z,10.78
2022-10-11T16:39:02.609Z,10.57
2022-10-11T16:41:30.512Z,10.33
2022-10-11T16:43:58.412Z,10.09
2022-10-11T16:46:26.318Z,9.93
2022-10-11T16:48:58.539Z,9.75
2022-10-11T16:51:26.400Z,9.61
2022-10-11T16:53:54.285Z,9.46
2022-10-11T16:56:24.227Z,9.33
2022-10-11T16:58:56.138Z,9.21
2022-10-11T17:01:24.171Z,9.11
2022-10-11T17:03:52.981Z,9.01
2022-10-11T17:06:20.865Z,8.91
2022-10-11T17:08:48.802Z,8.79
2022-10-11T17:11:17.895Z,8.68
2022-10-11T17:13:46.626Z,8.63
2022-10-11T17:16:15.059Z,8.59
2022-10-11T17:18:43.337Z,8.48
2022-10-11T17:21:16.273Z,8.27
2022-10-11T17:23:44.447Z,8.10
2022-10-11T17:26:19.670Z,8.01
2022-10-11T17:28:47.791Z,7.90
2022-10-11T17:31:15.982Z,7.79
2022-10-11T17:33:44.052Z,7.73
2022-10-11T17:36:23.221Z,7.67
2022-10-11T17:38:52.885Z,7.53
2022-10-11T17:41:28.144Z,7.45
2022-10-11T17:44:00.054Z,7.43
2022-10-11T17:46:32.953Z,7.43
2022-10-11T17:49:05.054Z,7.38
2022-10-11T17:51:34.586Z,7.30
2022-10-11T17:54:04.448Z,7.26
2022-10-11T17:56:37.756Z,7.22
2022-10-11T17:59:06.798Z,7.28
2022-10-11T18:01:35.429Z,7.38
2022-10-11T18:04:06.661Z,7.46
2022-10-11T18:06:40.055Z,7.54
2022-10-11T18:09:08.747Z,7.59
2022-10-11T18:11:37.863Z,7.61
2022-10-11T18:14:05.906Z,7.59
2022-10-11T18:16:36.755Z,7.58
2022-10-11T18:19:07.983Z,7.53
2022-10-11T18:21:37.797Z,7.45
2022-10-11T18:24:14.300Z,7.39
2022-10-11T18:26:47.538Z,7.34
2022-10-11T18:29:16.943Z,7.28
2022-10-11T18:31:46.790Z,7.19
2022-10-11T18:34:16.625Z,7.13
2022-10-11T18:36:45.231Z,7.08
2022-10-11T18:39:15.050Z,7.10
2022-10-11T18:41:45.039Z,7.07
2022-10-11T18:44:16.235Z,6.97
2022-10-11T18:46:46.342Z,6.87
2022-10-11T18:49:14.980Z,6.84
2022-10-11T18:51:45.448Z,6.82
2022-10-11T18:54:18.383Z,6.80
2022-10-11T18:56:49.456Z,6.79
2022-10-11T18:59:17.634Z,6.74
2022-10-11T19:01:46.180Z,6.70
2022-10-11T19:04:18.202Z,6.66
2022-10-11T19:06:49.224Z,6.63
2022-10-11T19:09:25.424Z,6.58
2022-10-11T19:11:56.755Z,6.51
2022-10-11T19:14:29.286Z,6.40
2022-10-11T19:16:58.279Z,6.29
2022-10-11T19:19:28.506Z,6.22
2022-10-11T19:21:57.260Z,6.17
2022-10-11T19:24:28.123Z,6.10
2022-10-11T19:27:02.057Z,6.06
2022-10-11T19:29:31.049Z,6.06
2022-10-11T19:32:01.576Z,6.05
2022-10-11T19:34:31.578Z,6.00
2022-10-11T19:37:01.232Z,5.96
2022-10-11T19:39:29.943Z,5.91
2022-10-11T19:41:58.063Z,5.88
2022-10-11T19:44:26.014Z,5.85
2022-10-11T19:46:54.062Z,5.84
2022-10-11T19:49:25.410Z,5.83
2022-10-11T19:51:55.702Z,5.83
2022-10-11T19:54:24.697Z,5.80
2022-10-11T19:56:52.924Z,5.75
2022-10-11T19:59:21.260Z,5.72
2022-10-11T20:01:53.231Z,5.66
2022-10-11T20:04:47.478Z,5.62
2022-10-11T20:07:10.795Z,5.61
2022-10-11T20:09:38.731Z,5.59
2022-10-11T20:12:07.093Z,5.60
2022-10-11T20:14:35.097Z,5.59
2022-10-11T20:17:03.028Z,5.50
2022-10-11T20:19:31.642Z,5.44
2022-10-11T20:22:00.833Z,5.43
2022-10-11T20:24:33.109Z,5.46
2022-10-11T20:27:06.686Z,5.45
2022-10-11T20:29:35.272Z,5.44
2022-10-11T20:32:03.077Z,5.42
2022-10-11T20:34:31.179Z,5.40
2022-10-11T20:36:59.194Z,5.40
2022-10-11T20:39:27.152Z,5.38
2022-10-11T20:41:55.121Z,5.25
2022-10-11T20:44:23.171Z,5.13
2022-10-11T20:46:51.273Z,5.06
2022-10-11T20:49:20.078Z,5.03
2022-10-11T20:51:48.670Z,5.04
2022-10-11T20:54:16.865Z,5.04
2022-10-11T20:56:44.770Z,5.04
2022-10-11T20:59:12.689Z,5.08
2022-10-11T21:01:40.948Z,5.10
2022-10-11T21:04:19.100Z,5.12
2022-10-11T21:06:48.575Z,5.10
2022-10-11T21:09:17.538Z,5.04
2022-10-11T21:11:46.157Z,4.95
2022-10-11T21:14:16.381Z,4.94
2022-10-11T21:16:44.213Z,4.93
2022-10-11T21:19:15.372Z,4.90
2022-10-11T21:21:50.971Z,4.85
2022-10-11T21:24:21.537Z,4.73
2022-10-11T21:26:49.468Z,4.62
2022-10-11T21:29:17.572Z,4.47
2022-10-11T21:31:45.458Z,4.31
2022-10-11T21:34:13.337Z,4.22
2022-10-11T21:36:41.281Z,4.20
2022-10-11T21:39:09.491Z,4.18
2022-10-11T21:41:37.309Z,4.13
2022-10-11T21:44:05.546Z,4.11
2022-10-11T21:49:23.953Z,4.02
2022-10-11T21:51:51.900Z,3.96
2022-10-11T21:54:20.017Z,3.91
2022-10-11T21:56:47.884Z,3.93
2022-10-11T21:59:15.961Z,3.95
2022-10-11T22:01:44.045Z,3.95
2022-10-11T22:04:12.088Z,3.89
2022-10-11T22:06:40.320Z,3.82
2022-10-11T22:09:09.165Z,3.79
2022-10-11T22:11:37.546Z,3.78
2022-10-11T22:14:06.114Z,3.80
2022-10-11T22:16:34.917Z,3.86
2022-10-11T22:19:03.239Z,3.84
2022-10-11T22:21:31.095Z,3.81
2022-10-11T22:23:58.976Z,3.77
2022-10-11T22:26:32.554Z,3.73
2022-10-11T22:29:00.663Z,3.70
2022-10-11T22:31:29.733Z,3.69
2022-10-11T22:33:59.753Z,3.69
2022-10-11T22:36:30.626Z,3.67
2022-10-11T22:38:59.062Z,3.64
2022-10-11T22:41:26.970Z,3.57
2022-10-11T22:43:54.843Z,3.51
2022-10-11T22:46:22.803Z,3.49
2022-10-11T22:48:50.595Z,3.53
2022-10-11T22:51:18.685Z,3.58
2022-10-11T22:53:46.558Z,3.56
2022-10-11T22:56:14.524Z,3.53
2022-10-11T22:58:42.341Z,3.54
2022-10-11T23:01:13.022Z,3.58
2022-10-11T23:03:40.984Z,3.56
2022-10-11T23:06:09.172Z,3.61
2022-10-11T23:08:36.959Z,3.56
2022-10-11T23:11:07.261Z,3.46
2022-10-11T23:13:35.869Z,3.37
2022-10-11T23:16:09.306Z,3.32
2022-10-11T23:18:37.990Z,3.27
2022-10-11T23:21:07.030Z,3.20
2022-10-11T23:23:35.775Z,3.17
2022-10-11T23:26:15.397Z,3.16
2022-10-11T23:28:44.251Z,3.14
2022-10-11T23:31:17.556Z,3.14
2022-10-11T23:33:46.671Z,3.14
2022-10-11T23:36:24.570Z,3.14
2022-10-11T23:38:56.668Z,3.12
2022-10-11T23:41:26.817Z,3.04
2022-10-11T23:43:55.046Z,3.01
2022-10-11T23:46:23.019Z,3.00
2022-10-11T23:48:51.006Z,2.99
2022-10-11T23:51:18.842Z,2.99
2022-10-11T23:53:46.663Z,2.98
2022-10-11T23:56:14.579Z,2.94
2022-10-11T23:58:42.664Z,2.90
